createdAt,value
2018-02-24T00:00:35.180Z,16.91
2018-02-24T00:01:35.187Z,16.92
2018-02-24T00:02:35.197Z,16.92
2018-02-24T00:03:35.190Z,16.91
2018-02-24T00:04:35.173Z,16.9
2018-02-24T00:05:35.177Z,16.89
2018-02-24T00:06:35.181Z,16.86
2018-02-24T00:07:35.213Z,16.88
2018-02-24T00:08:35.180Z,16.85
2018-02-24T00:09:35.190Z,16.87
2018-02-24T00:10:35.180Z,16.87
2018-02-24T00:11:35.196Z,16.85
2018-02-24T00:12:35.180Z,16.84
2018-02-24T00:13:35.178Z,16.82
2018-02-24T00:14:35.221Z,16.82
2018-02-24T00:15:35.190Z,16.84
2018-02-24T00:16:35.172Z,16.82
2018-02-24T00:17:35.200Z,16.8
2018-02-24T00:18:35.184Z,16.81
2018-02-24T00:19:35.169Z,16.81
2018-02-24T00:20:35.183Z,16.78
2018-02-24T00:21:35.190Z,16.79
2018-02-24T00:22:35.173Z,16.78
2018-02-24T00:23:35.176Z,16.77
2018-02-24T00:24:35.184Z,16.79
2018-02-24T00:25:35.163Z,16.77
2018-02-24T00:26:35.453Z,16.75
2018-02-24T00:27:35.202Z,16.76
2018-02-24T00:28:35.162Z,16.76
2018-02-24T00:29:35.163Z,16.77
2018-02-24T00:30:35.206Z,16.74
2018-02-24T00:31:35.193Z,16.73
2018-02-24T00:32:35.175Z,16.72
2018-02-24T00:33:35.164Z,16.76
2018-02-24T00:34:35.174Z,16.74
2018-02-24T00:35:35.169Z,16.71
2018-02-24T00:36:35.169Z,16.71
2018-02-24T00:37:35.165Z,16.71
2018-02-24T00:38:35.167Z,16.72
2018-02-24T00:39:35.179Z,16.69
2018-02-24T00:40:35.163Z,16.71
2018-02-24T00:41:35.177Z,16.69
2018-02-24T00:42:35.164Z,16.68
2018-02-24T00:43:35.170Z,16.67
2018-02-24T00:44:35.180Z,16.7
2018-02-24T00:45:35.162Z,16.68
2018-02-24T00:46:35.164Z,16.7
2018-02-24T00:47:35.163Z,16.67
2018-02-24T00:48:35.165Z,16.66
2018-02-24T00:49:35.174Z,16.68
2018-02-24T00:50:35.153Z,16.67
2018-02-24T00:51:35.163Z,16.65
2018-02-24T00:52:35.167Z,16.63
2018-02-24T00:53:35.160Z,16.62
2018-02-24T00:54:35.535Z,16.6
2018-02-24T00:55:35.159Z,16.62
2018-02-24T00:56:35.176Z,16.63
2018-02-24T00:57:35.262Z,16.62
2018-02-24T00:58:35.156Z,16.62
2018-02-24T00:59:35.177Z,16.62
2018-02-24T01:00:35.152Z,16.62
2018-02-24T01:01:35.179Z,16.6
2018-02-24T01:02:35.159Z,16.6
2018-02-24T01:03:35.166Z,16.61
2018-02-24T01:04:35.187Z,16.62
2018-02-24T01:05:35.325Z,16.62
2018-02-24T01:06:35.159Z,16.61
2018-02-24T01:07:35.153Z,16.6
2018-02-24T01:08:35.156Z,16.58
2018-02-24T01:09:35.172Z,16.57
2018-02-24T01:10:35.167Z,16.6
2018-02-24T01:11:35.170Z,16.58
2018-02-24T01:12:35.160Z,16.57
2018-02-24T01:13:35.259Z,16.58
2018-02-24T01:14:35.185Z,16.57
2018-02-24T01:15:35.152Z,16.55
2018-02-24T01:16:35.149Z,16.57
2018-02-24T01:17:35.200Z,16.58
2018-02-24T01:18:35.153Z,16.58
2018-02-24T01:19:35.190Z,16.57
2018-02-24T01:20:35.152Z,16.54
2018-02-24T01:21:35.141Z,16.55
2018-02-24T01:22:35.145Z,16.53
2018-02-24T01:23:35.162Z,16.55
2018-02-24T01:24:35.173Z,16.52
2018-02-24T01:25:35.138Z,16.54
2018-02-24T01:26:35.184Z,16.54
2018-02-24T01:27:35.150Z,16.53
2018-02-24T01:28:35.156Z,16.51
2018-02-24T01:29:35.146Z,16.53
2018-02-24T01:30:35.143Z,16.53
2018-02-24T01:31:35.197Z,16.53
2018-02-24T01:32:35.142Z,16.52
2018-02-24T01:33:35.148Z,16.54
2018-02-24T01:34:35.146Z,16.52
2018-02-24T01:35:35.152Z,16.51
2018-02-24T01:36:35.140Z,16.52
2018-02-24T01:37:35.208Z,16.53
2018-02-24T01:38:35.161Z,16.52
2018-02-24T01:39:35.136Z,16.51
2018-02-24T01:40:35.160Z,16.48
2018-02-24T01:41:35.141Z,16.5
2018-02-24T01:42:35.154Z,16.48
2018-02-24T01:43:35.148Z,16.47
2018-02-24T01:44:35.139Z,16.49
2018-02-24T01:45:35.152Z,16.49
2018-02-24T01:46:35.154Z,16.49
2018-02-24T01:47:35.141Z,16.47
2018-02-24T01:48:35.136Z,16.46
2018-02-24T01:49:35.151Z,16.45
2018-02-24T01:50:35.138Z,16.48
2018-02-24T01:51:35.172Z,16.49
2018-02-24T01:52:35.143Z,16.45
2018-02-24T01:53:35.146Z,16.44
2018-02-24T01:54:35.270Z,16.45
2018-02-24T01:55:35.226Z,16.46
2018-02-24T01:56:35.406Z,16.47
2018-02-24T01:57:35.139Z,16.43
2018-02-24T01:58:35.134Z,16.45
2018-02-24T01:59:35.130Z,16.42
2018-02-24T02:00:35.138Z,16.46
2018-02-24T02:01:35.161Z,16.44
2018-02-24T02:02:35.142Z,16.42
2018-02-24T02:03:35.152Z,16.43
2018-02-24T02:04:35.143Z,16.42
2018-02-24T02:05:35.127Z,16.39
2018-02-24T02:06:35.132Z,16.38
2018-02-24T02:07:35.136Z,16.38
2018-02-24T02:08:35.137Z,16.4
2018-02-24T02:09:35.124Z,16.37
2018-02-24T02:10:35.158Z,16.37
2018-02-24T02:11:35.137Z,16.38
2018-02-24T02:12:35.155Z,16.36
2018-02-24T02:13:35.136Z,16.39
2018-02-24T02:14:35.135Z,16.35
2018-02-24T02:15:35.125Z,16.35
2018-02-24T02:16:35.123Z,16.35
2018-02-24T02:17:35.128Z,16.33
2018-02-24T02:18:35.138Z,16.37
2018-02-24T02:19:35.131Z,16.37
2018-02-24T02:20:35.130Z,16.34
2018-02-24T02:21:35.137Z,16.31
2018-02-24T02:22:35.413Z,16.33
2018-02-24T02:23:35.147Z,16.33
2018-02-24T02:24:35.128Z,16.32
2018-02-24T02:25:35.125Z,16.3
2018-02-24T02:26:35.144Z,16.34
2018-02-24T02:27:35.153Z,16.35
2018-02-24T02:28:35.147Z,16.33
2018-02-24T02:29:35.146Z,16.34
2018-02-24T02:30:35.120Z,16.32
2018-02-24T02:31:35.123Z,16.31
2018-02-24T02:32:35.158Z,16.32
2018-02-24T02:33:35.128Z,16.29
2018-02-24T02:34:35.132Z,16.32
2018-02-24T02:35:35.125Z,16.3
2018-02-24T02:36:35.115Z,16.32
2018-02-24T02:37:35.163Z,16.34
2018-02-24T02:38:35.129Z,16.32
2018-02-24T02:39:35.125Z,16.28
2018-02-24T02:40:35.117Z,16.3
2018-02-24T02:41:35.128Z,16.31
2018-02-24T02:42:35.134Z,16.3
2018-02-24T02:43:35.151Z,16.31
2018-02-24T02:44:35.125Z,16.28
2018-02-24T02:45:35.111Z,16.27
2018-02-24T02:46:35.109Z,16.25
2018-02-24T02:47:35.129Z,16.3
2018-02-24T02:48:35.401Z,16.27
2018-02-24T02:49:35.117Z,16.28
2018-02-24T02:50:35.124Z,16.27
2018-02-24T02:51:35.128Z,16.2
2018-02-24T02:52:35.123Z,16.23
2018-02-24T02:53:35.145Z,16.2
2018-02-24T02:54:35.112Z,16.22
2018-02-24T02:55:35.113Z,16.24
2018-02-24T02:56:35.121Z,16.23
2018-02-24T02:57:35.107Z,16.23
2018-02-24T02:58:35.139Z,16.22
2018-02-24T02:59:35.128Z,16.22
2018-02-24T03:00:35.120Z,16.25
2018-02-24T03:01:35.113Z,16.27
2018-02-24T03:02:35.095Z,16.24
2018-02-24T03:03:35.227Z,16.24
2018-02-24T03:04:35.125Z,16.24
2018-02-24T03:05:35.112Z,16.21
2018-02-24T03:06:35.117Z,16.21
2018-02-24T03:07:35.116Z,16.22
2018-02-24T03:08:35.142Z,16.22
2018-02-24T03:09:35.106Z,16.23
2018-02-24T03:10:35.115Z,16.26
2018-02-24T03:11:35.127Z,16.22
2018-02-24T03:12:35.124Z,16.21
2018-02-24T03:13:35.141Z,16.21
2018-02-24T03:14:35.117Z,16.23
2018-02-24T03:15:35.107Z,16.25
2018-02-24T03:16:35.119Z,16.2
2018-02-24T03:17:35.131Z,16.19
2018-02-24T03:18:35.105Z,16.18
2018-02-24T03:19:35.325Z,16.15
2018-02-24T03:20:35.110Z,16.18
2018-02-24T03:21:35.113Z,16.17
2018-02-24T03:22:35.098Z,16.19
2018-02-24T03:23:35.106Z,16.19
2018-02-24T03:24:35.116Z,16.18
2018-02-24T03:25:35.108Z,16.18
2018-02-24T03:26:35.107Z,16.16
2018-02-24T03:27:35.106Z,16.18
2018-02-24T03:28:35.093Z,16.17
2018-02-24T03:29:35.136Z,16.15
2018-02-24T03:30:35.121Z,16.13
2018-02-24T03:31:35.177Z,16.14
2018-02-24T03:32:35.127Z,16.12
2018-02-24T03:33:35.109Z,16.13
2018-02-24T03:34:35.132Z,16.15
2018-02-24T03:35:35.119Z,16.16
2018-02-24T03:36:35.103Z,16.16
2018-02-24T03:37:35.083Z,16.16
2018-02-24T03:38:35.096Z,16.13
2018-02-24T03:39:35.136Z,16.14
2018-02-24T03:40:35.123Z,16.13
2018-02-24T03:41:35.096Z,16.09
2018-02-24T03:42:35.112Z,16.09
2018-02-24T03:43:35.102Z,16.11
2018-02-24T03:44:35.136Z,16.11
2018-02-24T03:45:35.106Z,16.11
2018-02-24T03:46:35.376Z,16.1
2018-02-24T03:47:35.102Z,16.14
2018-02-24T03:48:35.096Z,16.13
2018-02-24T03:49:35.086Z,16.08
2018-02-24T03:50:35.104Z,16.09
2018-02-24T03:51:35.124Z,16.11
2018-02-24T03:52:35.086Z,16.11
2018-02-24T03:53:35.097Z,16.11
2018-02-24T03:54:35.092Z,16.09
2018-02-24T03:55:35.184Z,16.1
2018-02-24T03:56:35.224Z,16.08
2018-02-24T03:57:35.104Z,16.06
2018-02-24T03:58:35.104Z,16.08
2018-02-24T03:59:35.107Z,16.11
2018-02-24T04:00:35.351Z,16.1
2018-02-24T04:01:35.078Z,16.11
2018-02-24T04:02:35.091Z,16.12
2018-02-24T04:03:35.097Z,16.11
2018-02-24T04:04:35.098Z,16.11
2018-02-24T04:05:35.126Z,16.12
2018-02-24T04:06:35.197Z,16.09
2018-02-24T04:07:35.092Z,16.05
2018-02-24T04:08:35.097Z,16.09
2018-02-24T04:09:35.082Z,16.1
2018-02-24T04:10:35.125Z,16.07
2018-02-24T04:11:35.097Z,16.09
2018-02-24T04:12:35.081Z,16.08
2018-02-24T04:13:35.085Z,16.06
2018-02-24T04:14:35.185Z,16.06
2018-02-24T04:15:35.121Z,16.09
2018-02-24T04:16:35.140Z,16.06
2018-02-24T04:17:35.096Z,16.05
2018-02-24T04:18:35.072Z,16.05
2018-02-24T04:19:35.110Z,16.07
2018-02-24T04:20:35.118Z,16.06
2018-02-24T04:21:35.104Z,16.06
2018-02-24T04:22:35.189Z,16.05
2018-02-24T04:23:35.111Z,16.05
2018-02-24T04:24:35.080Z,16.02
2018-02-24T04:25:35.125Z,16.02
2018-02-24T04:26:35.069Z,15.98
2018-02-24T04:27:35.080Z,16.01
2018-02-24T04:28:35.091Z,15.99
2018-02-24T04:29:35.085Z,16.02
2018-02-24T04:30:35.113Z,16.04
2018-02-24T04:31:35.082Z,16.01
2018-02-24T04:32:35.084Z,16.02
2018-02-24T04:33:35.087Z,16.01
2018-02-24T04:34:35.090Z,16.03
2018-02-24T04:35:35.115Z,16.01
2018-02-24T04:36:35.119Z,16.03
2018-02-24T04:37:35.128Z,16.01
2018-02-24T04:38:35.088Z,15.97
2018-02-24T04:39:35.078Z,15.95
2018-02-24T04:40:35.112Z,15.95
2018-02-24T04:41:35.083Z,15.98
2018-02-24T04:42:35.094Z,15.95
2018-02-24T04:43:35.094Z,15.96
2018-02-24T04:44:35.126Z,15.98
2018-02-24T04:45:35.062Z,15.96
2018-02-24T04:46:35.091Z,15.97
2018-02-24T04:47:35.073Z,15.92
2018-02-24T04:48:35.078Z,15.93
2018-02-24T04:49:35.077Z,15.94
2018-02-24T04:50:35.095Z,15.97
2018-02-24T04:51:35.085Z,15.99
2018-02-24T04:52:35.078Z,16.02
2018-02-24T04:53:35.080Z,16.04
2018-02-24T04:54:35.102Z,16.05
2018-02-24T04:55:35.084Z,16.07
2018-02-24T04:56:35.078Z,16.09
2018-02-24T04:57:35.108Z,16.1
2018-02-24T04:58:35.121Z,16.08
2018-02-24T04:59:35.080Z,16.1
2018-02-24T05:00:35.068Z,16.1
2018-02-24T05:01:35.085Z,16.07
2018-02-24T05:02:35.096Z,16.06
2018-02-24T05:03:35.076Z,16.06
2018-02-24T05:04:35.064Z,16.07
2018-02-24T05:05:35.078Z,16.07
2018-02-24T05:06:35.073Z,16.07
2018-02-24T05:07:35.080Z,16.07
2018-02-24T05:08:35.080Z,16.09
2018-02-24T05:09:35.073Z,16.09
2018-02-24T05:10:35.064Z,16.06
2018-02-24T05:11:35.069Z,16.08
2018-02-24T05:12:35.063Z,16.09
2018-02-24T05:13:35.090Z,16.08
2018-02-24T05:14:35.077Z,16.1
2018-02-24T05:15:35.090Z,16.1
2018-02-24T05:16:35.065Z,16.09
2018-02-24T05:17:35.073Z,16.12
2018-02-24T05:18:35.071Z,16.12
2018-02-24T05:19:35.070Z,16.14
2018-02-24T05:20:35.066Z,16.16
2018-02-24T05:21:35.080Z,16.16
2018-02-24T05:22:35.065Z,16.18
2018-02-24T05:23:35.066Z,16.19
2018-02-24T05:24:35.065Z,16.21
2018-02-24T05:25:35.070Z,16.21
2018-02-24T05:26:35.064Z,16.22
2018-02-24T05:27:35.388Z,16.25
2018-02-24T05:28:35.084Z,16.25
2018-02-24T05:29:35.035Z,16.26
2018-02-24T05:30:35.068Z,16.28
2018-02-24T05:31:35.060Z,16.3
2018-02-24T05:32:35.099Z,16.31
2018-02-24T05:33:35.057Z,16.31
2018-02-24T05:34:35.052Z,16.35
2018-02-24T05:35:35.053Z,16.35
2018-02-24T05:36:35.075Z,16.38
2018-02-24T05:37:35.061Z,16.4
2018-02-24T05:38:35.063Z,16.41
2018-02-24T05:39:35.060Z,16.43
2018-02-24T05:40:35.059Z,16.46
2018-02-24T05:41:35.058Z,16.48
2018-02-24T05:42:35.067Z,16.49
2018-02-24T05:43:35.333Z,16.52
2018-02-24T05:44:35.071Z,16.54
2018-02-24T05:45:35.068Z,16.57
2018-02-24T05:46:35.051Z,16.58
2018-02-24T05:47:35.054Z,16.6
2018-02-24T05:48:35.082Z,16.61
2018-02-24T05:49:35.065Z,16.63
2018-02-24T05:50:35.060Z,16.66
2018-02-24T05:51:35.063Z,16.7
2018-02-24T05:52:35.051Z,16.71
2018-02-24T05:53:35.036Z,16.74
2018-02-24T05:54:35.065Z,16.74
2018-02-24T05:55:35.063Z,16.77
2018-02-24T05:56:35.147Z,16.78
2018-02-24T05:57:35.114Z,16.79
2018-02-24T05:58:35.087Z,16.81
2018-02-24T05:59:35.087Z,16.83
2018-02-24T06:00:35.066Z,16.85
2018-02-24T06:01:35.056Z,16.86
2018-02-24T06:02:35.042Z,16.87
2018-02-24T06:03:35.058Z,16.89
2018-02-24T06:04:35.326Z,16.9
2018-02-24T06:05:35.053Z,16.91
2018-02-24T06:06:35.050Z,16.93
2018-02-24T06:07:35.145Z,16.95
2018-02-24T06:08:35.040Z,16.96
2018-02-24T06:09:35.083Z,16.98
2018-02-24T06:10:35.052Z,16.99
2018-02-24T06:11:35.044Z,17.01
2018-02-24T06:12:35.048Z,17.01
2018-02-24T06:13:35.044Z,17.04
2018-02-24T06:14:35.072Z,17.05
2018-02-24T06:15:35.041Z,17.06
2018-02-24T06:16:35.040Z,17.08
2018-02-24T06:17:35.033Z,17.07
2018-02-24T06:18:35.067Z,17.08
2018-02-24T06:19:35.072Z,17.11
2018-02-24T06:20:35.048Z,17.13
2018-02-24T06:21:35.035Z,17.13
2018-02-24T06:22:35.050Z,17.14
2018-02-24T06:23:35.043Z,17.15
2018-02-24T06:24:35.069Z,17.17
2018-02-24T06:25:35.050Z,17.18
2018-02-24T06:26:35.044Z,17.2
2018-02-24T06:27:35.023Z,17.21
2018-02-24T06:28:35.035Z,17.22
2018-02-24T06:29:35.063Z,17.23
2018-02-24T06:30:35.039Z,17.24
2018-02-24T06:31:35.052Z,17.26
2018-02-24T06:32:35.059Z,17.26
2018-02-24T06:33:35.047Z,17.26
2018-02-24T06:34:35.311Z,17.27
2018-02-24T06:35:35.054Z,17.28
2018-02-24T06:36:35.027Z,17.3
2018-02-24T06:37:35.041Z,17.31
2018-02-24T06:38:35.026Z,17.31
2018-02-24T06:39:35.103Z,17.32
2018-02-24T06:40:35.081Z,17.34
2018-02-24T06:41:35.034Z,17.41
2018-02-24T06:42:35.041Z,17.42
2018-02-24T06:43:35.029Z,17.43
2018-02-24T06:44:35.069Z,17.43
2018-02-24T06:45:35.083Z,17.45
2018-02-24T06:46:35.023Z,17.45
2018-02-24T06:47:35.028Z,17.45
2018-02-24T06:48:35.030Z,17.46
2018-02-24T06:49:35.070Z,17.47
2018-02-24T06:50:35.027Z,17.49
2018-02-24T06:51:35.025Z,17.5
2018-02-24T06:52:34.886Z,17.52
2018-02-24T06:53:35.059Z,17.53
2018-02-24T06:54:35.061Z,17.54
2018-02-24T06:55:35.033Z,17.56
2018-02-24T06:56:35.031Z,17.57
2018-02-24T06:57:35.042Z,17.58
2018-02-24T06:58:35.031Z,17.6
2018-02-24T06:59:35.325Z,17.6
2018-02-24T07:00:35.026Z,17.63
2018-02-24T07:01:35.031Z,17.64
2018-02-24T07:02:35.032Z,17.65
2018-02-24T07:03:35.033Z,17.67
2018-02-24T07:04:35.067Z,17.68
2018-02-24T07:05:35.037Z,17.68
2018-02-24T07:06:35.021Z,17.68
2018-02-24T07:07:35.017Z,17.68
2018-02-24T07:08:35.018Z,17.69
2018-02-24T07:09:35.058Z,17.69
2018-02-24T07:10:35.038Z,17.7
2018-02-24T07:11:35.016Z,17.7
2018-02-24T07:12:35.020Z,17.7
2018-02-24T07:13:35.016Z,17.69
2018-02-24T07:14:35.047Z,17.7
2018-02-24T07:15:35.038Z,17.7
2018-02-24T07:16:35.023Z,17.7
2018-02-24T07:17:35.032Z,17.71
2018-02-24T07:18:35.021Z,17.72
2018-02-24T07:19:35.281Z,17.73
2018-02-24T07:20:35.040Z,17.72
2018-02-24T07:21:35.022Z,17.73
2018-02-24T07:22:35.025Z,17.73
2018-02-24T07:23:35.125Z,17.74
2018-02-24T07:24:35.042Z,17.74
2018-02-24T07:25:35.031Z,17.75
2018-02-24T07:26:35.014Z,17.75
2018-02-24T07:27:35.022Z,17.76
2018-02-24T07:28:35.021Z,17.76
2018-02-24T07:29:35.054Z,17.77
2018-02-24T07:30:35.014Z,17.78
2018-02-24T07:31:35.119Z,17.78
2018-02-24T07:32:35.015Z,17.79
2018-02-24T07:33:35.026Z,17.78
2018-02-24T07:34:35.048Z,17.8
2018-02-24T07:35:35.025Z,17.81
2018-02-24T07:36:35.024Z,17.81
2018-02-24T07:37:35.019Z,17.81
2018-02-24T07:38:35.283Z,17.82
2018-02-24T07:39:35.023Z,17.82
2018-02-24T07:40:35.012Z,17.83
2018-02-24T07:41:35.028Z,17.82
2018-02-24T07:42:35.056Z,17.83
2018-02-24T07:43:35.045Z,17.85
2018-02-24T07:44:35.024Z,17.85
2018-02-24T07:45:35.007Z,17.85
2018-02-24T07:46:35.025Z,17.85
2018-02-24T07:47:35.010Z,17.86
2018-02-24T07:48:35.032Z,17.87
2018-02-24T07:49:35.097Z,17.88
2018-02-24T07:50:35.284Z,17.88
2018-02-24T07:51:35.009Z,17.89
2018-02-24T07:52:35.012Z,17.89
2018-02-24T07:53:35.041Z,17.89
2018-02-24T07:54:35.007Z,17.89
2018-02-24T07:55:35.033Z,17.91
2018-02-24T07:56:35.023Z,17.9
2018-02-24T07:57:35.124Z,17.91
2018-02-24T07:58:35.014Z,17.92
2018-02-24T07:59:35.015Z,17.92
2018-02-24T08:00:35.007Z,17.93
2018-02-24T08:01:35.030Z,17.93
2018-02-24T08:02:34.999Z,17.93
2018-02-24T08:03:35.013Z,17.94
2018-02-24T08:04:35.000Z,17.94
2018-02-24T08:05:35.022Z,17.94
2018-02-24T08:06:35.047Z,17.95
2018-02-24T08:07:35.007Z,17.96
2018-02-24T08:08:35.014Z,17.96
2018-02-24T08:09:35.001Z,17.98
2018-02-24T08:10:35.288Z,17.97
2018-02-24T08:11:34.999Z,17.98
2018-02-24T08:12:35.005Z,18
2018-02-24T08:13:35.014Z,18.13
2018-02-24T08:14:35.011Z,18.08
2018-02-24T08:15:35.022Z,18.07
2018-02-24T08:16:35.006Z,18.09
2018-02-24T08:17:35.066Z,18.12
2018-02-24T08:18:35.009Z,18.12
2018-02-24T08:19:35.003Z,18.14
2018-02-24T08:20:34.990Z,18.14
2018-02-24T08:21:35.011Z,18.15
2018-02-24T08:22:34.994Z,18.16
2018-02-24T08:23:34.999Z,18.17
2018-02-24T08:24:34.997Z,18.19
2018-02-24T08:25:35.278Z,18.19
2018-02-24T08:26:35.016Z,18.2
2018-02-24T08:27:35.011Z,18.21
2018-02-24T08:28:34.995Z,18.23
2018-02-24T08:29:34.987Z,18.24
2018-02-24T08:30:35.023Z,18.24
2018-02-24T08:31:35.020Z,18.25
2018-02-24T08:32:34.991Z,18.25
2018-02-24T08:33:35.012Z,18.26
2018-02-24T08:34:34.994Z,18.28
2018-02-24T08:35:34.990Z,18.28
2018-02-24T08:36:35.014Z,18.29
2018-02-24T08:37:35.075Z,18.3
2018-02-24T08:38:35.048Z,18.3
2018-02-24T08:39:35.029Z,18.31
2018-02-24T08:40:35.012Z,18.31
2018-02-24T08:41:35.022Z,18.32
2018-02-24T08:42:34.996Z,18.33
2018-02-24T08:43:35.004Z,18.33
2018-02-24T08:44:34.995Z,18.35
2018-02-24T08:45:35.006Z,18.35
2018-02-24T08:46:35.017Z,18.36
2018-02-24T08:47:35.007Z,18.37
2018-02-24T08:48:34.983Z,18.36
2018-02-24T08:49:34.992Z,18.37
2018-02-24T08:50:34.993Z,18.37
2018-02-24T08:51:35.017Z,18.38
2018-02-24T08:52:34.995Z,18.4
2018-02-24T08:53:34.984Z,18.41
2018-02-24T08:54:34.995Z,18.42
2018-02-24T08:55:34.983Z,18.41
2018-02-24T08:56:35.029Z,18.41
2018-02-24T08:57:34.998Z,18.42
2018-02-24T08:58:34.990Z,18.44
2018-02-24T08:59:35.011Z,18.45
2018-02-24T09:00:34.993Z,18.45
2018-02-24T09:01:34.983Z,18.47
2018-02-24T09:02:35.020Z,18.48
2018-02-24T09:03:34.984Z,18.49
2018-02-24T09:04:34.997Z,18.5
2018-02-24T09:05:34.978Z,18.5
2018-02-24T09:06:34.995Z,18.52
2018-02-24T09:07:35.178Z,18.52
2018-02-24T09:08:34.976Z,18.5
2018-02-24T09:09:34.984Z,18.49
2018-02-24T09:10:34.978Z,18.51
2018-02-24T09:11:35.000Z,18.49
2018-02-24T09:12:34.989Z,18.49
2018-02-24T09:13:34.982Z,18.47
2018-02-24T09:14:35.003Z,18.47
2018-02-24T09:15:34.987Z,18.48
2018-02-24T09:16:34.977Z,18.47
2018-02-24T09:17:35.004Z,18.45
2018-02-24T09:18:34.978Z,18.46
2018-02-24T09:19:34.982Z,18.46
2018-02-24T09:20:34.986Z,18.46
2018-02-24T09:21:34.974Z,18.46
2018-02-24T09:22:35.007Z,18.47
2018-02-24T09:23:35.006Z,18.46
2018-02-24T09:24:34.986Z,18.46
2018-02-24T09:25:34.987Z,18.46
2018-02-24T09:26:34.969Z,18.46
2018-02-24T09:27:35.011Z,18.46
2018-02-24T09:28:34.993Z,18.45
2018-02-24T09:29:34.964Z,18.46
2018-02-24T09:30:34.975Z,18.46
2018-02-24T09:31:34.978Z,18.45
2018-02-24T09:32:35.015Z,18.45
2018-02-24T09:33:34.982Z,18.46
2018-02-24T09:34:34.977Z,18.47
2018-02-24T09:35:34.985Z,18.46
2018-02-24T09:36:35.002Z,18.46
2018-02-24T09:37:35.232Z,18.46
2018-02-24T09:38:35.006Z,18.46
2018-02-24T09:39:34.967Z,18.45
2018-02-24T09:40:34.969Z,18.46
2018-02-24T09:41:34.964Z,18.46
2018-02-24T09:42:35.010Z,18.45
2018-02-24T09:43:34.979Z,18.46
2018-02-24T09:44:34.978Z,18.46
2018-02-24T09:45:34.972Z,18.46
2018-02-24T09:46:34.962Z,18.47
2018-02-24T09:47:35.003Z,18.47
2018-02-24T09:48:34.983Z,18.46
2018-02-24T09:49:34.964Z,18.47
2018-02-24T09:50:35.267Z,18.47
2018-02-24T09:51:34.982Z,18.47
2018-02-24T09:52:34.976Z,18.47
2018-02-24T09:53:34.958Z,18.46
2018-02-24T09:54:34.960Z,18.48
2018-02-24T09:55:35.004Z,18.48
2018-02-24T09:56:34.976Z,18.49
2018-02-24T09:57:34.958Z,18.48
2018-02-24T09:58:35.074Z,18.48
2018-02-24T09:59:34.995Z,18.49
2018-02-24T10:00:35.002Z,18.48
2018-02-24T10:01:34.965Z,18.51
2018-02-24T10:02:34.965Z,18.51
2018-02-24T10:03:34.973Z,18.5
2018-02-24T10:04:34.988Z,18.51
2018-02-24T10:05:34.991Z,18.51
2018-02-24T10:06:34.966Z,18.51
2018-02-24T10:07:34.956Z,18.51
2018-02-24T10:08:34.988Z,18.52
2018-02-24T10:09:34.972Z,18.52
2018-02-24T10:10:34.994Z,18.52
2018-02-24T10:11:34.962Z,18.52
2018-02-24T10:12:34.964Z,18.52
2018-02-24T10:13:34.956Z,18.52
2018-02-24T10:14:34.964Z,18.52
2018-02-24T10:15:35.010Z,18.53
2018-02-24T10:16:34.974Z,18.52
2018-02-24T10:17:34.964Z,18.53
2018-02-24T10:18:34.956Z,18.54
2018-02-24T10:19:34.967Z,18.54
2018-02-24T10:20:35.001Z,18.54
2018-02-24T10:21:34.965Z,18.55
2018-02-24T10:22:34.956Z,18.54
2018-02-24T10:23:34.978Z,18.54
2018-02-24T10:24:34.971Z,18.55
2018-02-24T10:25:34.998Z,18.55
2018-02-24T10:26:34.967Z,18.56
2018-02-24T10:27:34.959Z,18.56
2018-02-24T10:28:34.975Z,18.56
2018-02-24T10:29:34.958Z,18.55
2018-02-24T10:30:34.996Z,18.57
2018-02-24T10:31:34.972Z,18.57
2018-02-24T10:32:34.959Z,18.57
2018-02-24T10:33:34.956Z,18.58
2018-02-24T10:34:34.958Z,18.58
2018-02-24T10:35:34.982Z,18.59
2018-02-24T10:36:34.942Z,18.58
2018-02-24T10:37:35.002Z,18.59
2018-02-24T10:38:34.966Z,18.58
2018-02-24T10:39:34.962Z,18.58
2018-02-24T10:40:35.053Z,18.59
2018-02-24T10:41:34.961Z,18.6
2018-02-24T10:42:35.004Z,18.59
2018-02-24T10:43:34.947Z,18.6
2018-02-24T10:44:34.946Z,18.6
2018-02-24T10:45:34.984Z,18.61
2018-02-24T10:46:34.950Z,18.6
2018-02-24T10:47:34.954Z,18.62
2018-02-24T10:48:35.068Z,18.63
2018-02-24T10:49:34.963Z,18.65
2018-02-24T10:50:34.953Z,18.7
2018-02-24T10:51:34.953Z,18.68
2018-02-24T10:52:34.982Z,18.64
2018-02-24T10:53:34.964Z,18.65
2018-02-24T10:54:34.952Z,18.64
2018-02-24T10:55:34.950Z,18.64
2018-02-24T10:56:35.046Z,18.65
2018-02-24T10:57:34.981Z,18.65
2018-02-24T10:58:34.952Z,18.66
2018-02-24T10:59:34.950Z,18.65
2018-02-24T11:00:34.959Z,18.67
2018-02-24T11:01:34.949Z,18.67
2018-02-24T11:02:34.941Z,18.7
2018-02-24T11:03:34.982Z,18.68
2018-02-24T11:04:34.943Z,18.7
2018-02-24T11:05:35.014Z,18.71
2018-02-24T11:06:34.947Z,18.72
2018-02-24T11:07:34.947Z,18.71
2018-02-24T11:08:35.045Z,18.69
2018-02-24T11:09:34.963Z,18.71
2018-02-24T11:10:34.949Z,18.75
2018-02-24T11:11:34.947Z,18.74
2018-02-24T11:12:35.026Z,18.71
2018-02-24T11:13:34.949Z,18.63
2018-02-24T11:14:35.220Z,18.61
2018-02-24T11:15:34.937Z,18.62
2018-02-24T11:16:34.945Z,18.64
2018-02-24T11:17:34.940Z,18.65
2018-02-24T11:18:34.948Z,18.67
2018-02-24T11:19:34.997Z,18.68
2018-02-24T11:20:34.949Z,18.71
2018-02-24T11:21:34.962Z,18.71
2018-02-24T11:22:34.937Z,18.75
2018-02-24T11:23:34.940Z,18.77
2018-02-24T11:24:34.949Z,18.79
2018-02-24T11:25:34.959Z,18.8
2018-02-24T11:26:34.946Z,18.84
2018-02-24T11:27:34.946Z,18.83
2018-02-24T11:28:34.935Z,18.84
2018-02-24T11:29:34.936Z,18.88
2018-02-24T11:30:35.218Z,18.86
2018-02-24T11:31:34.932Z,18.88
2018-02-24T11:32:34.929Z,18.9
2018-02-24T11:33:34.935Z,18.9
2018-02-24T11:34:34.958Z,18.89
2018-02-24T11:35:34.964Z,18.92
2018-02-24T11:36:34.934Z,18.93
2018-02-24T11:37:34.939Z,18.93
2018-02-24T11:38:34.930Z,18.95
2018-02-24T11:39:34.928Z,18.96
2018-02-24T11:40:34.939Z,18.96
2018-02-24T11:41:34.945Z,18.96
2018-02-24T11:42:35.194Z,18.98
2018-02-24T11:43:34.997Z,18.98
2018-02-24T11:44:34.933Z,18.99
2018-02-24T11:45:34.936Z,19
2018-02-24T11:46:34.994Z,19
2018-02-24T11:47:34.950Z,19.02
2018-02-24T11:48:34.929Z,18.99
2018-02-24T11:49:34.928Z,19.01
2018-02-24T11:50:34.955Z,19.01
2018-02-24T11:51:34.923Z,19.02
2018-02-24T11:52:34.955Z,19
2018-02-24T11:53:34.926Z,19.02
2018-02-24T11:54:24.461Z,19.31
2018-02-24T11:55:33.173Z,19.39
2018-02-24T11:56:32.705Z,19.41
2018-02-24T11:57:32.718Z,19.44
2018-02-24T11:58:32.746Z,19.47
2018-02-24T11:59:32.713Z,19.5
2018-02-24T12:00:18.601Z,19.53
2018-02-24T12:01:17.868Z,19.54
2018-02-24T12:02:17.889Z,19.54
2018-02-24T12:03:17.882Z,19.56
2018-02-24T12:04:17.864Z,19.57
2018-02-24T12:05:17.872Z,19.58
2018-02-24T12:06:17.870Z,19.59
2018-02-24T12:07:17.866Z,19.6
2018-02-24T12:08:17.864Z,19.62
2018-02-24T12:09:17.868Z,19.63
2018-02-24T12:10:17.872Z,19.65
2018-02-24T12:11:17.868Z,19.64
2018-02-24T12:11:58.235Z,19.65
2018-02-24T12:12:57.507Z,19.66
2018-02-24T12:13:57.506Z,19.67
2018-02-24T12:14:57.525Z,19.68
2018-02-24T12:16:13.947Z,19.7
2018-02-24T12:16:56.098Z,19.72
2018-02-24T12:17:55.738Z,19.72
2018-02-24T12:18:55.710Z,19.73
2018-02-24T12:19:55.708Z,19.73
2018-02-24T12:20:55.707Z,19.74
2018-02-24T12:21:55.748Z,19.74
2018-02-24T12:22:55.711Z,19.74
2018-02-24T12:23:55.703Z,19.73
2018-02-24T12:24:55.705Z,19.71
2018-02-24T12:25:55.733Z,19.69
2018-02-24T12:26:55.713Z,19.68
2018-02-24T12:27:55.733Z,19.68
2018-02-24T12:28:55.697Z,19.66
2018-02-24T12:29:55.732Z,19.65
2018-02-24T12:30:55.718Z,19.65
2018-02-24T12:31:55.732Z,19.63
2018-02-24T12:32:55.739Z,19.62
2018-02-24T12:33:55.730Z,19.61
2018-02-24T12:34:55.703Z,19.61
2018-02-24T12:35:55.705Z,19.61
2018-02-24T12:36:55.699Z,19.6
2018-02-24T12:37:55.694Z,19.6
2018-02-24T12:38:55.704Z,19.6
2018-02-24T12:39:55.684Z,19.59
2018-02-24T12:40:55.726Z,19.59
2018-02-24T12:41:55.743Z,19.59
2018-02-24T12:42:55.731Z,19.57
2018-02-24T12:43:55.702Z,19.57
2018-02-24T12:44:55.698Z,19.57
2018-02-24T12:45:55.707Z,19.56
2018-02-24T12:46:55.702Z,19.56
2018-02-24T12:47:55.695Z,19.57
2018-02-24T12:48:55.707Z,19.56
2018-02-24T12:49:56.660Z,19.57
2018-02-24T12:50:55.701Z,19.56
2018-02-24T12:51:55.688Z,19.56
2018-02-24T12:52:55.696Z,19.55
2018-02-24T12:53:55.707Z,19.54
2018-02-24T12:54:55.682Z,19.54